Time;durP1;ratioP1;P1;durP2;ratioP2;P2;SDS_P1;SDS_P2;PMS_P1;PMS_P2;Temp;Humidity;BMP_temperature;BMP_pressure;BME280_temperature;BME280_humidity;BME280_pressure;Samples;Min_cycle;Max_cycle;Signal;HPM_P1;HPM_P2
2022/08/28 00:00:42;;;;;;;5.85;1.77;;;19.70;99.90;;;;;;5055587;28;20198;-48
2022/08/28 00:03:09;;;;;;;7.80;1.80;;;19.60;99.90;;;;;;5055269;28;20174;-48
2022/08/28 00:05:34;;;;;;;8.05;1.75;;;19.60;99.90;;;;;;5055654;28;20194;-52
2022/08/28 00:08:01;;;;;;;8.13;2.00;;;19.60;99.90;;;;;;5055787;28;20166;-47
2022/08/28 00:10:27;;;;;;;5.82;1.77;;;19.60;99.90;;;;;;5055480;28;20171;-44
2022/08/28 00:12:56;;;;;;;5.00;1.77;;;19.50;99.90;;;;;;5055612;28;20301;-44
2022/08/28 00:15:26;;;;;;;5.13;1.85;;;19.60;99.90;;;;;;5056023;28;20167;-44
2022/08/28 00:17:52;;;;;;;5.20;1.90;;;19.50;99.90;;;;;;5055776;28;20162;-43
2022/08/28 00:20:19;;;;;;;8.38;1.90;;;19.50;99.90;;;;;;5055286;28;20260;-44
2022/08/28 00:22:46;;;;;;;3.60;1.63;;;19.40;99.90;;;;;;5055210;28;20654;-43
2022/08/28 00:25:13;;;;;;;3.05;1.55;;;19.40;99.90;;;;;;5055204;28;20201;-44
2022/08/28 00:27:51;;;;;;;3.03;1.70;;;19.40;99.90;;;;;;5055430;28;20534;-44
2022/08/28 00:30:22;;;;;;;5.72;1.85;;;19.40;99.90;;;;;;5055378;28;20528;-45
2022/08/28 00:32:48;;;;;;;10.43;1.73;;;19.40;99.90;;;;;;5055053;28;20197;-44
2022/08/28 00:35:16;;;;;;;8.43;1.85;;;19.40;99.90;;;;;;5055280;28;20226;-44
2022/08/28 00:37:42;;;;;;;4.53;1.65;;;19.40;99.90;;;;;;5055249;28;20174;-43
2022/08/28 00:40:09;;;;;;;7.10;1.90;;;19.40;99.90;;;;;;5054892;28;20194;-44
2022/08/28 00:42:37;;;;;;;5.63;1.70;;;19.40;99.90;;;;;;5055066;28;20175;-44
2022/08/28 00:45:04;;;;;;;3.55;1.75;;;19.30;99.90;;;;;;5055168;28;20174;-47
2022/08/28 00:47:29;;;;;;;2.30;1.60;;;19.30;99.90;;;;;;5055080;28;20182;-50
2022/08/28 00:49:56;;;;;;;3.05;1.73;;;19.20;99.90;;;;;;5055178;28;20578;-49
2022/08/28 00:52:23;;;;;;;6.80;1.77;;;19.20;99.90;;;;;;5055314;28;20178;-51
2022/08/28 00:54:52;;;;;;;5.80;1.80;;;19.20;99.90;;;;;;5054662;28;20661;-50
2022/08/28 00:57:25;;;;;;;3.80;2.22;;;19.20;99.90;;;;;;5054580;28;20188;-50
2022/08/28 00:59:51;;;;;;;5.00;1.67;;;19.20;99.90;;;;;;5054783;28;20205;-51
2022/08/28 01:02:16;;;;;;;7.65;1.73;;;19.20;99.90;;;;;;5053182;28;20190;-51
2022/08/28 01:04:42;;;;;;;3.00;1.70;;;19.10;99.90;;;;;;5054511;28;20636;-53
2022/08/28 01:07:13;;;;;;;4.55;1.60;;;19.20;99.90;;;;;;5054458;28;20171;-51
2022/08/28 01:09:43;;;;;;;6.95;2.42;;;19.20;99.90;;;;;;5054313;28;20175;-48
2022/08/28 01:12:18;;;;;;;9.60;2.15;;;19.10;99.90;;;;;;5054375;28;20518;-49
2022/08/28 01:14:45;;;;;;;5.40;1.67;;;19.10;99.90;;;;;;5054376;28;20178;-50
2022/08/28 01:17:13;;;;;;;4.35;1.50;;;19.00;99.90;;;;;;5054449;28;20578;-50
2022/08/28 01:19:47;;;;;;;6.13;1.80;;;19.10;99.90;;;;;;5052870;28;20540;-52
2022/08/28 01:22:19;;;;;;;4.32;1.92;;;19.10;99.90;;;;;;5054133;28;20646;-50
2022/08/28 01:24:47;;;;;;;5.45;2.03;;;19.10;99.90;;;;;;5054079;28;20178;-51
2022/08/28 01:27:12;;;;;;;7.70;2.10;;;19.10;99.90;;;;;;5053974;28;20174;-53
2022/08/28 01:29:38;;;;;;;5.95;1.90;;;19.00;99.90;;;;;;5054224;28;20171;-44
2022/08/28 01:32:04;;;;;;;4.47;1.80;;;19.00;99.90;;;;;;5054050;28;20537;-43
2022/08/28 01:34:31;;;;;;;5.20;1.90;;;19.00;99.90;;;;;;5053962;28;20212;-43
2022/08/28 01:36:57;;;;;;;3.90;1.90;;;18.90;99.90;;;;;;5053921;28;20178;-44
2022/08/28 01:39:25;;;;;;;5.80;1.73;;;18.90;99.90;;;;;;5054211;28;20166;-44
2022/08/28 01:41:53;;;;;;;8.05;1.67;;;18.90;99.90;;;;;;5054017;28;20217;-44
2022/08/28 01:44:24;;;;;;;7.93;2.00;;;19.00;99.90;;;;;;5053729;28;20635;-44
2022/08/28 01:46:51;;;;;;;8.18;2.40;;;19.00;99.90;;;;;;5054103;28;20596;-44
2022/08/28 01:49:17;;;;;;;6.80;2.05;;;18.90;99.90;;;;;;5053730;28;20167;-43
2022/08/28 01:51:43;;;;;;;4.05;1.92;;;18.90;99.90;;;;;;5053831;28;20171;-44
2022/08/28 01:54:09;;;;;;;7.93;2.10;;;18.80;99.90;;;;;;5053563;28;20167;-44
2022/08/28 01:56:35;;;;;;;7.53;2.08;;;18.80;99.90;;;;;;5053591;28;20253;-44
2022/08/28 01:59:04;;;;;;;7.35;2.47;;;18.80;99.90;;;;;;5053494;28;20250;-44
2022/08/28 02:01:30;;;;;;;5.50;2.15;;;18.80;99.90;;;;;;5053349;28;20285;-46
2022/08/28 02:03:56;;;;;;;5.55;2.03;;;18.80;99.90;;;;;;5053439;28;20221;-45
2022/08/28 02:06:21;;;;;;;10.43;2.88;;;18.80;99.90;;;;;;5053773;28;20169;-45
2022/08/28 02:08:48;;;;;;;6.85;2.47;;;18.80;99.90;;;;;;5053291;28;20181;-47
2022/08/28 02:11:15;;;;;;;7.40;2.50;;;18.80;99.90;;;;;;5053221;28;20170;-47
2022/08/28 02:13:41;;;;;;;6.28;2.35;;;18.80;99.90;;;;;;5052788;28;20215;-47
2022/08/28 02:16:08;;;;;;;7.10;2.10;;;18.70;99.90;;;;;;5053224;28;20236;-45
2022/08/28 02:18:36;;;;;;;8.20;2.10;;;18.70;99.90;;;;;;5053038;28;20509;-49
2022/08/28 02:21:02;;;;;;;6.47;2.25;;;18.70;99.90;;;;;;5053289;28;20210;-51
2022/08/28 02:23:28;;;;;;;7.50;2.42;;;18.70;99.90;;;;;;5052992;28;20167;-49
2022/08/28 02:25:54;;;;;;;6.45;2.30;;;18.70;99.90;;;;;;5053387;28;20530;-49
2022/08/28 02:28:19;;;;;;;8.73;2.60;;;18.60;99.90;;;;;;5052931;28;20163;-49
2022/08/28 02:30:45;;;;;;;8.02;2.58;;;18.60;99.90;;;;;;5052832;28;20185;-49
2022/08/28 02:33:10;;;;;;;10.32;2.53;;;18.70;99.90;;;;;;5052760;28;20166;-51
2022/08/28 02:35:36;;;;;;;5.57;2.58;;;18.60;99.90;;;;;;5052801;28;20174;-47
2022/08/28 02:38:02;;;;;;;9.10;3.30;;;18.60;99.90;;;;;;5052750;28;20178;-51
2022/08/28 02:40:28;;;;;;;7.88;2.67;;;18.60;99.90;;;;;;5052841;28;20207;-51
2022/08/28 02:42:54;;;;;;;4.95;2.72;;;18.60;99.90;;;;;;5052959;28;20208;-48
2022/08/28 02:45:19;;;;;;;6.53;3.05;;;18.50;99.90;;;;;;5052582;28;20166;-52
2022/08/28 02:47:46;;;;;;;9.20;3.25;;;18.50;99.90;;;;;;5052564;28;20177;-53
2022/08/28 02:50:16;;;;;;;7.88;2.95;;;18.40;99.90;;;;;;5052476;28;20162;-53
2022/08/28 02:52:42;;;;;;;6.28;2.63;;;18.50;99.90;;;;;;5052543;28;20170;-53
2022/08/28 02:55:11;;;;;;;7.85;2.70;;;18.40;99.90;;;;;;5052291;28;20171;-53
2022/08/28 02:57:37;;;;;;;8.10;3.10;;;18.40;99.90;;;;;;5052407;28;20198;-54
2022/08/28 03:00:12;;;;;;;6.50;2.47;;;18.40;99.90;;;;;;5052243;28;20650;-53
2022/08/28 03:02:39;;;;;;;9.88;3.17;;;18.40;99.90;;;;;;5052596;28;20177;-53
2022/08/28 03:05:06;;;;;;;8.85;3.05;;;18.30;99.90;;;;;;5052509;28;20171;-54
2022/08/28 03:07:31;;;;;;;13.15;3.28;;;18.20;99.90;;;;;;5050939;28;20312;-44
2022/08/28 03:09:57;;;;;;;10.95;2.97;;;18.20;99.90;;;;;;5052410;28;20242;-45
2022/08/28 03:12:23;;;;;;;9.35;2.90;;;18.10;99.90;;;;;;5052389;28;20210;-44
2022/08/28 03:14:53;;;;;;;8.30;3.10;;;18.20;99.90;;;;;;5052205;28;20155;-44
2022/08/28 03:17:20;;;;;;;13.27;3.97;;;18.10;99.90;;;;;;5052096;28;20166;-44
2022/08/28 03:19:45;;;;;;;6.03;3.20;;;18.00;99.90;;;;;;5051925;28;20280;-44
2022/08/28 03:22:11;;;;;;;4.40;2.97;;;17.90;99.90;;;;;;5051992;28;20197;-44
2022/08/28 03:24:37;;;;;;;16.08;3.70;;;17.90;99.90;;;;;;5051248;28;20167;-44
2022/08/28 03:27:04;;;;;;;9.18;3.42;;;17.80;99.90;;;;;;5051963;28;20535;-44
2022/08/28 03:29:30;;;;;;;7.30;3.13;;;17.80;99.90;;;;;;5051835;28;20201;-44
2022/08/28 03:31:56;;;;;;;6.53;2.70;;;17.70;99.90;;;;;;5051868;28;20170;-47
2022/08/28 03:34:22;;;;;;;7.65;2.95;;;17.60;99.90;;;;;;5052177;28;20167;-44
2022/08/28 03:36:48;;;;;;;10.90;3.58;;;17.60;99.90;;;;;;5052174;28;20236;-43
2022/08/28 03:39:14;;;;;;;7.15;3.20;;;17.50;99.90;;;;;;5051854;28;20162;-44
2022/08/28 03:41:39;;;;;;;6.25;3.00;;;17.40;99.90;;;;;;5051685;28;20229;-46
2022/08/28 03:44:06;;;;;;;10.00;3.30;;;17.40;99.90;;;;;;5051898;28;20535;-44
2022/08/28 03:46:32;;;;;;;8.98;3.50;;;17.30;99.90;;;;;;5051973;28;20174;-44
2022/08/28 03:49:00;;;;;;;8.00;3.70;;;17.30;99.90;;;;;;5051717;28;20245;-46
2022/08/28 03:51:29;;;;;;;14.07;4.05;;;17.20;99.90;;;;;;5052059;28;20166;-45
2022/08/28 03:53:55;;;;;;;5.53;3.00;;;17.10;99.90;;;;;;5052071;28;20171;-44
2022/08/28 03:56:26;;;;;;;5.82;3.38;;;17.10;99.90;;;;;;5051990;28;20194;-44
2022/08/28 03:58:56;;;;;;;10.90;3.78;;;17.00;99.90;;;;;;5051927;28;20173;-44
2022/08/28 04:01:22;;;;;;;8.93;3.72;;;17.00;99.90;;;;;;5051793;28;20212;-44
2022/08/28 04:03:48;;;;;;;8.43;3.50;;;17.00;99.90;;;;;;5051723;28;20253;-44
2022/08/28 04:06:14;;;;;;;7.80;3.65;;;16.90;99.90;;;;;;5051543;28;20171;-44
2022/08/28 04:08:41;;;;;;;12.20;3.80;;;16.90;99.90;;;;;;5051706;28;20174;-44
2022/08/28 04:11:06;;;;;;;12.45;4.07;;;16.80;99.90;;;;;;5051559;28;20171;-44
2022/08/28 04:13:32;;;;;;;9.27;3.50;;;16.80;99.90;;;;;;5051522;28;20285;-44
2022/08/28 04:16:06;;;;;;;10.60;3.80;;;16.70;99.90;;;;;;5051480;28;20622;-44
2022/08/28 04:18:32;;;;;;;9.50;3.47;;;16.80;99.90;;;;;;5051390;28;20175;-49
2022/08/28 04:21:04;;;;;;;5.80;3.22;;;16.80;99.90;;;;;;5051278;28;20206;-44
2022/08/28 04:23:30;;;;;;;9.00;3.55;;;16.70;99.90;;;;;;5051321;28;20626;-44
2022/08/28 04:25:56;;;;;;;10.27;3.67;;;16.70;99.90;;;;;;5051331;28;20179;-45
2022/08/28 04:28:23;;;;;;;10.93;3.85;;;16.70;99.90;;;;;;5051657;28;20249;-45
2022/08/28 04:30:55;;;;;;;7.53;3.17;;;16.70;99.90;;;;;;5051286;28;20167;-47
2022/08/28 04:33:23;;;;;;;7.65;4.18;;;16.70;99.90;;;;;;5051642;28;20250;-44
2022/08/28 04:35:48;;;;;;;7.53;3.40;;;16.70;99.90;;;;;;5051549;28;20250;-43
2022/08/28 04:38:14;;;;;;;7.03;3.40;;;16.70;99.90;;;;;;5055103;28;20250;-44
2022/08/28 04:40:41;;;;;;;9.93;4.20;;;16.70;99.90;;;;;;5054880;28;20217;-44
2022/08/28 04:43:07;;;;;;;6.00;3.17;;;16.70;99.90;;;;;;5054927;28;20218;-44
2022/08/28 04:45:37;;;;;;;9.88;3.92;;;16.70;99.90;;;;;;5055165;28;20201;-44
2022/08/28 04:48:04;;;;;;;13.10;4.03;;;16.60;99.90;;;;;;5053576;28;20206;-46
2022/08/28 04:50:29;;;;;;;11.32;3.90;;;16.60;99.90;;;;;;5054768;28;20155;-44
2022/08/28 04:52:55;;;;;;;13.55;4.22;;;16.70;99.90;;;;;;5054707;28;20174;-47
2022/08/28 04:55:21;;;;;;;14.20;4.00;;;16.70;99.90;;;;;;5054980;28;20194;-51
2022/08/28 04:57:47;;;;;;;10.25;4.13;;;16.70;99.90;;;;;;5054610;28;20171;-52
2022/08/28 05:00:13;;;;;;;8.90;3.22;;;16.70;99.90;;;;;;5054522;28;20278;-50
2022/08/28 05:02:38;;;;;;;15.13;3.90;;;16.70;99.90;;;;;;5054795;28;20525;-52
2022/08/28 05:05:04;;;;;;;7.13;3.42;;;16.70;99.90;;;;;;5054809;28;20249;-47
2022/08/28 05:07:30;;;;;;;9.65;4.20;;;16.70;99.90;;;;;;5053246;28;20534;-50
2022/08/28 05:09:55;;;;;;;11.50;3.65;;;16.70;99.90;;;;;;5054453;28;20178;-50
2022/08/28 05:12:21;;;;;;;7.30;3.25;;;16.80;99.90;;;;;;5054559;28;20218;-48
2022/08/28 05:14:48;;;;;;;15.60;3.50;;;16.90;99.90;;;;;;5054250;28;20189;-52
2022/08/28 05:17:14;;;;;;;12.77;3.55;;;16.90;99.90;;;;;;5054641;28;20179;-50
2022/08/28 05:19:40;;;;;;;10.88;3.58;;;16.90;99.90;;;;;;5054298;28;20185;-50
2022/08/28 05:22:08;;;;;;;13.32;4.07;;;16.90;99.90;;;;;;5054157;28;20209;-51
2022/08/28 05:24:38;;;;;;;9.98;3.60;;;17.00;99.90;;;;;;5054413;28;20166;-51
2022/08/28 05:27:05;;;;;;;7.88;3.38;;;17.00;99.90;;;;;;5054011;28;20170;-49
2022/08/28 05:29:31;;;;;;;11.32;3.72;;;17.00;99.90;;;;;;5054116;28;20173;-50
2022/08/28 05:31:56;;;;;;;8.30;3.30;;;17.20;99.90;;;;;;5054080;28;20171;-51
2022/08/28 05:34:22;;;;;;;8.75;2.92;;;17.20;99.90;;;;;;5054307;28;20182;-51
2022/08/28 05:36:47;;;;;;;13.50;3.58;;;17.10;99.90;;;;;;5054004;28;20167;-52
2022/08/28 05:39:13;;;;;;;10.02;3.47;;;17.20;99.90;;;;;;5052645;28;20170;-46
2022/08/28 05:41:42;;;;;;;14.60;4.45;;;17.30;99.90;;;;;;5054024;28;20210;-48
2022/08/28 05:44:10;;;;;;;10.30;3.70;;;17.40;99.90;;;;;;5053801;28;20171;-44
2022/08/28 05:46:38;;;;;;;5.93;3.00;;;17.40;99.90;;;;;;5052549;28;20174;-46
2022/08/28 05:49:06;;;;;;;9.68;3.35;;;17.40;99.90;;;;;;5053176;28;20568;-47
2022/08/28 05:51:33;;;;;;;9.40;3.45;;;17.50;99.90;;;;;;5053900;28;20291;-53
2022/08/28 05:53:58;;;;;;;9.00;3.03;;;17.50;99.90;;;;;;5053668;28;20163;-46
2022/08/28 05:56:28;;;;;;;12.88;2.92;;;17.50;99.90;;;;;;5053604;28;20181;-44
2022/08/28 05:58:54;;;;;;;8.52;3.45;;;17.50;99.90;;;;;;5053921;28;20186;-44
2022/08/28 06:01:27;;;;;;;10.20;4.10;;;17.50;99.90;;;;;;5053671;28;20212;-45
2022/08/28 06:03:59;;;;;;;11.25;3.42;;;17.40;99.90;;;;;;5053900;28;20178;-44
2022/08/28 06:06:28;;;;;;;10.80;3.35;;;17.60;99.90;;;;;;5053622;28;20175;-48
2022/08/28 06:08:58;;;;;;;7.47;2.95;;;17.70;99.90;;;;;;5053894;28;20181;-46
2022/08/28 06:11:25;;;;;;;13.32;3.83;;;17.70;99.90;;;;;;5053387;28;20163;-45
2022/08/28 06:13:51;;;;;;;9.65;3.38;;;17.80;99.90;;;;;;5053350;28;20228;-51
2022/08/28 06:16:17;;;;;;;8.50;3.53;;;17.80;99.90;;;;;;5053226;28;20184;-52
2022/08/28 06:18:43;;;;;;;7.13;2.80;;;17.70;99.90;;;;;;5052101;28;20186;-48
2022/08/28 06:21:09;;;;;;;8.63;3.20;;;17.80;99.90;;;;;;5053216;28;20210;-50
2022/08/28 06:23:34;;;;;;;8.30;3.22;;;17.90;99.90;;;;;;5052894;28;20170;-47
2022/08/28 06:26:00;;;;;;;8.43;3.00;;;17.90;99.90;;;;;;5051546;28;20253;-48
2022/08/28 06:28:27;;;;;;;8.00;3.50;;;17.90;99.90;;;;;;5052903;28;20163;-45
2022/08/28 06:30:53;;;;;;;5.07;2.60;;;18.00;99.90;;;;;;5053142;28;20186;-46
2022/08/28 06:33:20;;;;;;;9.52;2.90;;;18.00;99.90;;;;;;5053154;28;20173;-53
2022/08/28 06:35:49;;;;;;;13.93;2.75;;;18.10;99.90;;;;;;5052841;28;20481;-53
2022/08/28 06:38:17;;;;;;;9.93;3.03;;;18.10;99.90;;;;;;5052747;28;20186;-53
2022/08/28 06:40:45;;;;;;;11.63;3.17;;;18.20;99.90;;;;;;5052425;28;20194;-51
2022/08/28 06:43:13;;;;;;;11.80;2.95;;;18.10;99.90;;;;;;5052151;28;20176;-52
2022/08/28 06:45:46;;;;;;;7.97;2.97;;;18.20;99.90;;;;;;5053092;28;20217;-45
2022/08/28 06:48:15;;;;;;;9.65;2.85;;;18.10;99.90;;;;;;5052342;28;20178;-55
2022/08/28 06:50:43;;;;;;;11.27;2.72;;;18.20;99.90;;;;;;5052420;28;20642;-49
2022/08/28 06:53:11;;;;;;;11.10;3.47;;;18.20;99.90;;;;;;5052375;28;20896;-47
2022/08/28 06:55:37;;;;;;;14.30;2.90;;;18.20;99.90;;;;;;5052721;28;20568;-44
2022/08/28 06:58:04;;;;;;;9.85;3.50;;;18.20;99.90;;;;;;5052251;28;20162;-44
2022/08/28 07:00:30;;;;;;;6.70;2.83;;;18.20;99.90;;;;;;5052216;28;20198;-48
2022/08/28 07:02:56;;;;;;;8.15;2.58;;;18.40;99.90;;;;;;5052571;28;20175;-48
2022/08/28 07:05:22;;;;;;;9.00;2.70;;;18.30;99.90;;;;;;5052615;28;20197;-43
2022/08/28 07:07:48;;;;;;;9.55;3.10;;;18.40;99.90;;;;;;5052066;28;20198;-44
2022/08/28 07:10:13;;;;;;;7.47;2.70;;;18.40;99.90;;;;;;5052366;28;20672;-44
2022/08/28 07:12:39;;;;;;;5.68;3.05;;;18.40;99.90;;;;;;5052083;28;20206;-43
2022/08/28 07:15:06;;;;;;;8.05;3.50;;;18.20;99.90;;;;;;5052011;28;20179;-44
2022/08/28 07:17:32;;;;;;;4.40;2.40;;;18.20;99.90;;;;;;5052378;28;20630;-46
2022/08/28 07:19:57;;;;;;;7.90;2.22;;;18.10;99.90;;;;;;5051953;28;20180;-43
2022/08/28 07:22:25;;;;;;;10.68;3.28;;;18.30;99.90;;;;;;5052202;28;20634;-43
2022/08/28 07:24:51;;;;;;;11.02;3.08;;;18.30;99.90;;;;;;5052443;28;20296;-43
2022/08/28 07:27:17;;;;;;;8.88;2.55;;;18.30;99.90;;;;;;5051743;28;20261;-44
2022/08/28 07:29:43;;;;;;;11.38;3.03;;;18.20;99.90;;;;;;5052116;28;20201;-44
2022/08/28 07:32:08;;;;;;;4.38;2.33;;;18.30;99.90;;;;;;5051891;28;20198;-44
2022/08/28 07:34:38;;;;;;;9.50;3.03;;;18.30;99.90;;;;;;5051809;28;20193;-43
2022/08/28 07:37:06;;;;;;;7.78;2.50;;;18.40;99.90;;;;;;5052122;28;20200;-44
2022/08/28 07:39:32;;;;;;;7.40;2.35;;;18.70;99.90;;;;;;5051779;28;20185;-45
2022/08/28 07:41:57;;;;;;;8.98;2.40;;;18.80;99.90;;;;;;5051462;28;20211;-45
2022/08/28 07:47:10;;;;;;;11.13;3.15;;;19.30;99.90;;;;;;5052048;28;20258;-44
2022/08/28 07:49:36;;;;;;;10.20;2.70;;;19.30;99.90;;;;;;5051925;28;20217;-45
2022/08/28 07:52:02;;;;;;;11.13;3.05;;;19.30;99.90;;;;;;5051526;28;20526;-44
2022/08/28 07:54:28;;;;;;;9.93;2.60;;;19.20;99.90;;;;;;5051104;28;20189;-44
2022/08/28 07:56:54;;;;;;;10.20;3.00;;;19.40;99.90;;;;;;5051250;28;20166;-45
2022/08/28 07:59:19;;;;;;;5.88;2.67;;;19.50;99.90;;;;;;5051837;28;20642;-45
2022/08/28 08:01:47;;;;;;;7.40;3.08;;;19.50;99.90;;;;;;5051374;28;20217;-45
2022/08/28 08:04:14;;;;;;;12.25;3.28;;;19.70;99.90;;;;;;5051369;28;20558;-45
2022/08/28 08:06:41;;;;;;;9.00;2.50;;;19.70;99.90;;;;;;5050199;28;20174;-45
2022/08/28 08:09:09;;;;;;;5.13;2.65;;;19.70;99.90;;;;;;5051119;28;20167;-45
2022/08/28 08:11:35;;;;;;;9.48;3.53;;;19.90;99.90;;;;;;5052825;28;20182;-44
2022/08/28 08:14:03;;;;;;;6.20;2.55;;;20.00;99.90;;;;;;5055482;28;20210;-45
2022/08/28 08:16:32;;;;;;;7.18;2.40;;;20.10;99.90;;;;;;5055504;28;20242;-44
2022/08/28 08:18:58;;;;;;;11.30;2.90;;;20.10;99.90;;;;;;5055436;28;20178;-46
2022/08/28 08:21:24;;;;;;;9.48;3.15;;;20.10;99.90;;;;;;5055478;28;20214;-45
2022/08/28 08:23:50;;;;;;;10.35;3.55;;;20.20;99.90;;;;;;5055710;28;20692;-44
2022/08/28 08:26:19;;;;;;;4.97;2.50;;;20.20;99.90;;;;;;5055027;28;20652;-48
2022/08/28 08:28:45;;;;;;;5.65;2.47;;;19.90;99.90;;;;;;5055246;28;20623;-47
2022/08/28 08:31:16;;;;;;;11.73;2.83;;;20.00;99.90;;;;;;5054920;28;20178;-47
2022/08/28 08:33:44;;;;;;;8.15;2.90;;;20.00;99.90;;;;;;5055141;28;20165;-46
2022/08/28 08:36:11;;;;;;;8.40;3.00;;;20.10;99.90;;;;;;5055040;28;20177;-47
2022/08/28 08:38:38;;;;;;;14.23;2.95;;;20.00;99.90;;;;;;5055004;28;20177;-46
2022/08/28 08:41:24;;;;;;;7.72;2.92;;;19.80;99.90;;;;;;5054853;28;20195;-46
2022/08/28 08:44:16;;;;;;;6.90;2.88;;;20.10;99.90;;;;;;5055470;28;20197;-45
2022/08/28 08:46:52;;;;;;;5.60;2.53;;;20.10;99.90;;;;;;5054636;28;20217;-46
2022/08/28 08:49:21;;;;;;;6.78;2.35;;;20.30;99.90;;;;;;5054651;28;20693;-45
2022/08/28 08:52:17;;;;;;;6.20;2.78;;;20.20;99.90;;;;;;5054823;28;20177;-46
2022/08/28 08:54:47;;;;;;;5.78;2.40;;;20.30;99.90;;;;;;5054804;28;20170;-47
2022/08/28 08:57:14;;;;;;;8.60;2.17;;;20.60;99.90;;;;;;5054913;28;20163;-46
2022/08/28 08:59:40;;;;;;;8.52;2.70;;;20.50;99.90;;;;;;5054556;28;20162;-46
2022/08/28 09:02:20;;;;;;;4.15;2.35;;;20.90;99.90;;;;;;5054514;28;20225;-46
2022/08/28 09:05:01;;;;;;;5.50;2.15;;;21.00;99.90;;;;;;5054790;28;20224;-48
2022/08/28 09:07:52;;;;;;;11.57;2.75;;;20.90;99.90;;;;;;5054271;28;20177;-49
2022/08/28 09:10:18;;;;;;;6.78;2.95;;;21.30;99.90;;;;;;5054386;28;20558;-48
2022/08/28 09:12:56;;;;;;;6.35;2.60;;;21.40;99.90;;;;;;5052905;28;20210;-47
2022/08/28 09:15:39;;;;;;;6.53;2.33;;;21.40;99.90;;;;;;5055033;28;20182;-50
2022/08/28 09:18:13;;;;;;;13.07;3.00;;;21.30;99.90;;;;;;5054328;28;20653;-51
2022/08/28 09:20:40;;;;;;;6.35;2.42;;;21.50;99.90;;;;;;5053915;28;20657;-48
2022/08/28 09:23:06;;;;;;;6.65;2.50;;;21.40;99.90;;;;;;5053278;28;20177;-52
2022/08/28 09:26:04;;;;;;;6.57;2.85;;;21.60;99.90;;;;;;5054408;28;20225;-47
2022/08/28 09:28:36;;;;;;;6.75;2.42;;;21.70;99.90;;;;;;5049552;28;20201;-55
2022/08/28 09:31:04;;;;;;;10.73;2.42;;;21.90;99.90;;;;;;5053955;28;20262;-53
2022/08/28 09:33:31;;;;;;;6.63;2.33;;;21.80;99.90;;;;;;5052566;28;20171;-54
2022/08/28 09:36:17;;;;;;;7.90;2.92;;;22.00;99.90;;;;;;5053843;28;20521;-52
2022/08/28 09:38:43;;;;;;;13.50;2.90;;;22.00;99.90;;;;;;5053833;28;20646;-52
2022/08/28 09:43:55;;;;;;;8.50;2.78;;;22.10;99.90;;;;;;5051311;28;20262;-51
2022/08/28 09:46:26;;;;;;;6.05;2.17;;;21.90;99.90;;;;;;5052619;28;20167;-53
2022/08/28 09:49:07;;;;;;;7.90;2.95;;;21.90;99.90;;;;;;5052248;28;20626;-47
2022/08/28 09:51:37;;;;;;;8.82;3.13;;;22.20;99.90;;;;;;5051836;28;20220;-51
2022/08/28 09:54:20;;;;;;;10.13;2.58;;;22.30;99.90;;;;;;5052314;28;20179;-55
2022/08/28 09:56:47;;;;;;;6.35;2.22;;;22.30;99.90;;;;;;5052198;28;20171;-56
2022/08/28 09:59:18;;;;;;;10.10;5.03;;;21.90;99.90;;;;;;5051811;28;20261;-55
2022/08/28 10:02:12;;;;;;;5.45;2.10;;;22.30;99.90;;;;;;5051932;28;20245;-55
2022/08/28 10:04:52;;;;;;;6.72;2.70;;;22.30;99.90;;;;;;5051840;28;20163;-55
2022/08/28 10:07:37;;;;;;;7.40;2.78;;;22.40;99.90;;;;;;5052086;28;20162;-55
2022/08/28 10:10:08;;;;;;;4.63;2.15;;;22.50;99.90;;;;;;5051976;28;20173;-54
2022/08/28 10:13:01;;;;;;;8.02;2.50;;;22.60;99.90;;;;;;5051784;28;20218;-54
2022/08/28 10:15:40;;;;;;;4.85;2.55;;;22.70;99.90;;;;;;5051563;28;20245;-55
2022/08/28 10:18:23;;;;;;;7.03;2.80;;;22.70;99.90;;;;;;5051678;28;20253;-55
2022/08/28 10:21:05;;;;;;;7.07;2.88;;;22.50;99.90;;;;;;5051820;28;20194;-55
2022/08/28 10:23:41;;;;;;;5.90;2.97;;;22.90;99.90;;;;;;5051494;28;20190;-55
2022/08/28 10:26:33;;;;;;;5.82;2.58;;;23.00;99.90;;;;;;5051682;28;20182;-54
2022/08/28 10:29:08;;;;;;;7.80;2.92;;;23.10;99.90;;;;;;5051778;28;20189;-55
2022/08/28 10:31:57;;;;;;;8.10;3.17;;;23.20;99.90;;;;;;5051638;28;20560;-56
2022/08/28 10:34:50;;;;;;;7.65;3.00;;;23.00;99.90;;;;;;5051367;28;20173;-49
2022/08/28 10:37:58;;;;;;;4.25;2.38;;;23.10;99.90;;;;;;5051186;28;20213;-52
2022/08/28 10:40:25;;;;;;;5.63;2.30;;;23.40;99.90;;;;;;5040483;28;20198;-54
2022/08/28 10:43:24;;;;;;;6.85;2.72;;;23.30;99.90;;;;;;5051565;28;20300;-49
2022/08/28 10:45:50;;;;;;;7.10;2.58;;;23.30;99.90;;;;;;5049808;28;20167;-48
2022/08/28 10:48:52;;;;;;;7.97;2.75;;;23.50;99.90;;;;;;5050767;28;20522;-49
2022/08/28 10:51:47;;;;;;;4.65;3.00;;;23.40;99.90;;;;;;5051043;28;20216;-56
2022/08/28 10:54:48;;;;;;;5.10;2.78;;;23.30;99.90;;;;;;5051295;28;20162;-49
2022/08/28 10:57:33;;;;;;;9.05;2.38;;;23.40;99.90;;;;;;5050839;28;20654;-47
2022/08/28 11:00:09;;;;;;;7.32;2.40;;;23.50;99.90;;;;;;5051078;28;20527;-47
2022/08/28 11:02:36;;;;;;;5.68;2.55;;;23.50;99.90;;;;;;5050902;28;20300;-48
2022/08/28 11:05:02;;;;;;;7.97;2.55;;;23.40;99.90;;;;;;5050840;28;20202;-49
2022/08/28 11:07:31;;;;;;;7.10;2.85;;;23.60;99.90;;;;;;5051001;28;20175;-50
2022/08/28 11:10:37;;;;;;;4.53;2.50;;;23.50;99.90;;;;;;5050760;28;20171;-50
2022/08/28 11:13:08;;;;;;;4.95;2.15;;;23.70;99.90;;;;;;5050382;28;20215;-47
2022/08/28 11:15:35;;;;;;;7.28;2.38;;;23.60;99.90;;;;;;5038450;28;20179;-47
2022/08/28 11:18:42;;;;;;;8.75;2.65;;;23.60;99.90;;;;;;5030372;28;20159;-49
2022/08/28 11:21:25;;;;;;;10.00;2.70;;;23.80;99.90;;;;;;5030765;28;20222;-55
2022/08/28 11:24:02;;;;;;;8.35;2.50;;;23.90;99.90;;;;;;5030844;28;20166;-50
2022/08/28 11:26:55;;;;;;;3.92;2.28;;;23.90;99.90;;;;;;5034012;28;20566;-48
2022/08/28 11:29:59;;;;;;;8.93;2.72;;;23.80;99.90;;;;;;5034989;28;20176;-50
2022/08/28 11:32:55;;;;;;;4.88;2.30;;;23.90;99.90;;;;;;5030463;28;20170;-55
2022/08/28 11:35:35;;;;;;;5.35;2.53;;;24.10;99.90;;;;;;5044791;28;20183;-53
2022/08/28 11:38:01;;;;;;;6.47;2.33;;;24.00;99.90;;;;;;5030862;28;20535;-56
2022/08/28 11:40:27;;;;;;;5.05;2.38;;;24.30;99.90;;;;;;5048038;28;20206;-54
2022/08/28 11:43:16;;;;;;;4.75;2.25;;;24.20;99.90;;;;;;5042981;28;20233;-46
2022/08/28 11:45:42;;;;;;;4.22;2.13;;;24.30;99.90;;;;;;5041746;28;21203;-55
2022/08/28 11:48:38;;;;;;;5.40;2.50;;;24.30;99.90;;;;;;5030374;28;20175;-55
2022/08/28 11:51:12;;;;;;;6.07;2.25;;;24.30;99.90;;;;;;5038058;28;20178;-55
2022/08/28 11:53:56;;;;;;;5.50;2.10;;;24.30;99.90;;;;;;5037815;28;20720;-54
2022/08/28 11:56:42;;;;;;;3.70;2.47;;;24.20;99.90;;;;;;5041100;28;20621;-54
2022/08/28 11:59:34;;;;;;;5.97;2.60;;;24.40;99.90;;;;;;5048430;28;20174;-54
2022/08/28 12:02:37;;;;;;;3.70;1.90;;;24.40;99.90;;;;;;5003599;28;20314;-56
2022/08/28 12:05:08;;;;;;;2.92;2.28;;;24.20;99.90;;;;;;5039040;28;20171;-55
2022/08/28 12:07:39;;;;;;;5.60;2.63;;;24.20;99.90;;;;;;5048230;28;20228;-54
2022/08/28 12:10:23;;;;;;;6.20;3.05;;;24.30;99.90;;;;;;5047693;28;20175;-55
2022/08/28 12:12:54;;;;;;;5.68;2.22;;;24.40;99.90;;;;;;5037965;28;20259;-55
2022/08/28 12:15:28;;;;;;;6.22;2.60;;;24.70;99.90;;;;;;5034703;28;20213;-55
2022/08/28 12:18:04;;;;;;;3.72;2.30;;;24.70;99.90;;;;;;5049649;28;20540;-55
2022/08/28 12:20:32;;;;;;;4.22;2.00;;;24.60;99.90;;;;;;5049374;28;20198;-54
2022/08/28 12:23:02;;;;;;;4.15;2.40;;;24.60;99.90;;;;;;5044338;28;20179;-54
2022/08/28 12:25:36;;;;;;;5.28;2.10;;;24.60;99.90;;;;;;5041019;28;20224;-54
2022/08/28 12:28:27;;;;;;;4.57;2.28;;;24.70;99.90;;;;;;5049493;28;20672;-56
2022/08/28 12:32:09;;;;;;;3.95;2.10;;;25.00;99.90;;;;;;5037567;28;20199;-55
2022/08/28 12:34:23;;;;;;;7.43;2.40;;;25.00;99.90;;;;;;5035641;28;20194;-55
2022/08/28 12:36:57;;;;;;;3.65;2.03;;;24.90;99.90;;;;;;5042328;28;20171;-52
2022/08/28 12:39:23;;;;;;;5.88;2.10;;;25.00;99.90;;;;;;5036041;28;20182;-53
2022/08/28 12:41:49;;;;;;;3.05;1.90;;;24.80;99.90;;;;;;5049730;28;20229;-55
2022/08/28 12:44:15;;;;;;;4.35;2.10;;;24.90;99.90;;;;;;5047929;28;20532;-55
2022/08/28 12:46:42;;;;;;;7.18;2.35;;;24.90;99.90;;;;;;5030187;28;20171;-56
2022/08/28 12:49:27;;;;;;;4.38;2.30;;;24.90;99.90;;;;;;5036991;28;20647;-54
2022/08/28 12:52:26;;;;;;;6.43;2.40;;;25.00;99.90;;;;;;5048142;28;20177;-52
2022/08/28 12:54:57;;;;;;;6.05;2.47;;;25.00;99.90;;;;;;5037948;28;20642;-54
2022/08/28 12:57:24;;;;;;;7.25;2.80;;;24.90;99.90;;;;;;5041380;28;20707;-49
2022/08/28 12:59:52;;;;;;;4.68;2.15;;;24.10;99.90;;;;;;5037982;28;20682;-47
2022/08/28 13:02:29;;;;;;;5.40;2.22;;;25.00;99.90;;;;;;5033380;28;20203;-56
2022/08/28 13:05:09;;;;;;;3.80;2.50;;;25.10;99.90;;;;;;5032933;28;20179;-55
2022/08/28 13:07:39;;;;;;;5.75;2.47;;;25.20;99.90;;;;;;5034131;28;20167;-53
2022/08/28 13:10:30;;;;;;;6.07;2.40;;;25.20;99.90;;;;;;5051592;28;20175;-55